sensor_id;sensor_type;location;lat;lon;timestamp;P1;durP1;ratioP1;P2;durP2;ratioP2
3563;SDS011;1796;52.388;13.096;2023-04-25T00:00:01;8.20;;;1.93;;
3563;SDS011;1796;52.388;13.096;2023-04-25T00:02:31;9.17;;;2.80;;
3563;SDS011;1796;52.388;13.096;2023-04-25T00:04:59;3.57;;;2.33;;
3563;SDS011;1796;52.388;13.096;2023-04-25T00:07:26;5.30;;;2.33;;
3563;SDS011;1796;52.388;13.096;2023-04-25T00:09:55;6.53;;;2.27;;
3563;SDS011;1796;52.388;13.096;2023-04-25T00:12:22;3.33;;;1.90;;
3563;SDS011;1796;52.388;13.096;2023-04-25T00:14:49;2.50;;;2.00;;
3563;SDS011;1796;52.388;13.096;2023-04-25T00:17:16;5.03;;;2.57;;
3563;SDS011;1796;52.388;13.096;2023-04-25T00:19:44;6.67;;;2.80;;
3563;SDS011;1796;52.388;13.096;2023-04-25T00:22:11;3.03;;;2.83;;
3563;SDS011;1796;52.388;13.096;2023-04-25T00:24:38;6.83;;;3.17;;
3563;SDS011;1796;52.388;13.096;2023-04-25T00:27:06;5.27;;;3.50;;
3563;SDS011;1796;52.388;13.096;2023-04-25T00:29:33;2.87;;;2.67;;
3563;SDS011;1796;52.388;13.096;2023-04-25T00:32:00;5.30;;;2.73;;
3563;SDS011;1796;52.388;13.096;2023-04-25T00:34:27;4.77;;;2.13;;
3563;SDS011;1796;52.388;13.096;2023-04-25T00:36:54;4.70;;;2.47;;
3563;SDS011;1796;52.388;13.096;2023-04-25T00:39:21;5.63;;;2.53;;
3563;SDS011;1796;52.388;13.096;2023-04-25T00:41:48;3.13;;;2.77;;
3563;SDS011;1796;52.388;13.096;2023-04-25T00:44:19;7.07;;;2.80;;
3563;SDS011;1796;52.388;13.096;2023-04-25T00:46:46;4.77;;;2.40;;
3563;SDS011;1796;52.388;13.096;2023-04-25T00:49:14;11.33;;;2.80;;
3563;SDS011;1796;52.388;13.096;2023-04-25T00:51:43;8.10;;;2.40;;
3563;SDS011;1796;52.388;13.096;2023-04-25T00:54:10;4.47;;;2.30;;
3563;SDS011;1796;52.388;13.096;2023-04-25T00:56:38;12.80;;;3.00;;
3563;SDS011;1796;52.388;13.096;2023-04-25T00:59:05;7.00;;;2.57;;
3563;SDS011;1796;52.388;13.096;2023-04-25T01:01:33;4.30;;;2.60;;
3563;SDS011;1796;52.388;13.096;2023-04-25T01:04:01;4.80;;;2.90;;
3563;SDS011;1796;52.388;13.096;2023-04-25T01:06:28;4.77;;;2.50;;
3563;SDS011;1796;52.388;13.096;2023-04-25T01:08:55;3.00;;;2.50;;
3563;SDS011;1796;52.388;13.096;2023-04-25T01:11:23;6.87;;;2.87;;
3563;SDS011;1796;52.388;13.096;2023-04-25T01:13:50;6.07;;;2.17;;
3563;SDS011;1796;52.388;13.096;2023-04-25T01:16:17;3.67;;;2.50;;
3563;SDS011;1796;52.388;13.096;2023-04-25T01:18:45;4.30;;;2.50;;
3563;SDS011;1796;52.388;13.096;2023-04-25T01:21:14;3.00;;;2.40;;
3563;SDS011;1796;52.388;13.096;2023-04-25T01:23:41;7.57;;;2.50;;
3563;SDS011;1796;52.388;13.096;2023-04-25T01:26:09;2.40;;;2.30;;
3563;SDS011;1796;52.388;13.096;2023-04-25T01:28:37;7.80;;;2.70;;
3563;SDS011;1796;52.388;13.096;2023-04-25T01:31:06;8.50;;;2.60;;
3563;SDS011;1796;52.388;13.096;2023-04-25T01:33:33;5.57;;;2.43;;
3563;SDS011;1796;52.388;13.096;2023-04-25T01:36:00;5.50;;;2.57;;
3563;SDS011;1796;52.388;13.096;2023-04-25T01:38:28;7.93;;;2.70;;
3563;SDS011;1796;52.388;13.096;2023-04-25T01:40:55;4.27;;;2.60;;
3563;SDS011;1796;52.388;13.096;2023-04-25T01:43:22;5.20;;;2.97;;
3563;SDS011;1796;52.388;13.096;2023-04-25T01:45:50;6.20;;;2.80;;
3563;SDS011;1796;52.388;13.096;2023-04-25T01:48:17;8.23;;;2.63;;
3563;SDS011;1796;52.388;13.096;2023-04-25T01:50:44;3.73;;;2.80;;
3563;SDS011;1796;52.388;13.096;2023-04-25T01:53:12;5.10;;;3.40;;
3563;SDS011;1796;52.388;13.096;2023-04-25T01:55:41;7.40;;;3.03;;
3563;SDS011;1796;52.388;13.096;2023-04-25T01:58:08;4.27;;;3.00;;
3563;SDS011;1796;52.388;13.096;2023-04-25T02:00:38;5.47;;;2.90;;
3563;SDS011;1796;52.388;13.096;2023-04-25T02:03:06;10.53;;;3.50;;
3563;SDS011;1796;52.388;13.096;2023-04-25T02:05:36;3.37;;;2.73;;
3563;SDS011;1796;52.388;13.096;2023-04-25T02:08:04;8.43;;;2.97;;
3563;SDS011;1796;52.388;13.096;2023-04-25T02:10:32;4.10;;;3.33;;
3563;SDS011;1796;52.388;13.096;2023-04-25T02:13:00;7.73;;;3.30;;
3563;SDS011;1796;52.388;13.096;2023-04-25T02:15:27;15.77;;;3.07;;
3563;SDS011;1796;52.388;13.096;2023-04-25T02:17:54;4.50;;;3.03;;
3563;SDS011;1796;52.388;13.096;2023-04-25T02:20:21;3.57;;;2.70;;
3563;SDS011;1796;52.388;13.096;2023-04-25T02:22:48;5.53;;;3.53;;
3563;SDS011;1796;52.388;13.096;2023-04-25T02:25:15;4.37;;;3.20;;
3563;SDS011;1796;52.388;13.096;2023-04-25T02:27:42;10.27;;;3.30;;
3563;SDS011;1796;52.388;13.096;2023-04-25T02:30:11;5.40;;;2.97;;
3563;SDS011;1796;52.388;13.096;2023-04-25T02:32:38;7.73;;;3.33;;
3563;SDS011;1796;52.388;13.096;2023-04-25T02:35:06;5.37;;;3.20;;
3563;SDS011;1796;52.388;13.096;2023-04-25T02:37:34;7.87;;;3.40;;
3563;SDS011;1796;52.388;13.096;2023-04-25T02:40:01;3.90;;;3.27;;
3563;SDS011;1796;52.388;13.096;2023-04-25T02:42:29;6.80;;;3.37;;
3563;SDS011;1796;52.388;13.096;2023-04-25T02:44:56;6.63;;;3.83;;
3563;SDS011;1796;52.388;13.096;2023-04-25T02:47:24;9.93;;;3.57;;
3563;SDS011;1796;52.388;13.096;2023-04-25T02:49:51;5.97;;;3.33;;
3563;SDS011;1796;52.388;13.096;2023-04-25T02:52:18;7.87;;;2.80;;
3563;SDS011;1796;52.388;13.096;2023-04-25T02:54:44;3.77;;;3.40;;
3563;SDS011;1796;52.388;13.096;2023-04-25T02:57:11;12.23;;;4.20;;
3563;SDS011;1796;52.388;13.096;2023-04-25T02:59:38;4.00;;;3.60;;
3563;SDS011;1796;52.388;13.096;2023-04-25T03:02:05;5.03;;;3.47;;
3563;SDS011;1796;52.388;13.096;2023-04-25T03:04:33;5.07;;;3.37;;
3563;SDS011;1796;52.388;13.096;2023-04-25T03:07:00;8.10;;;3.93;;
3563;SDS011;1796;52.388;13.096;2023-04-25T03:09:27;6.13;;;3.53;;
3563;SDS011;1796;52.388;13.096;2023-04-25T03:11:54;3.83;;;3.30;;
3563;SDS011;1796;52.388;13.096;2023-04-25T03:14:21;9.90;;;3.47;;
3563;SDS011;1796;52.388;13.096;2023-04-25T03:16:48;5.13;;;3.63;;
3563;SDS011;1796;52.388;13.096;2023-04-25T03:19:15;9.00;;;3.53;;
3563;SDS011;1796;52.388;13.096;2023-04-25T03:21:43;12.23;;;3.53;;
3563;SDS011;1796;52.388;13.096;2023-04-25T03:24:10;7.13;;;3.47;;
3563;SDS011;1796;52.388;13.096;2023-04-25T03:26:37;9.67;;;4.07;;
3563;SDS011;1796;52.388;13.096;2023-04-25T03:29:04;9.53;;;3.07;;
3563;SDS011;1796;52.388;13.096;2023-04-25T03:31:31;5.53;;;3.63;;
3563;SDS011;1796;52.388;13.096;2023-04-25T03:33:58;9.63;;;3.87;;
3563;SDS011;1796;52.388;13.096;2023-04-25T03:36:25;6.80;;;3.33;;
3563;SDS011;1796;52.388;13.096;2023-04-25T03:38:53;9.60;;;3.90;;
3563;SDS011;1796;52.388;13.096;2023-04-25T03:41:20;6.17;;;3.67;;
3563;SDS011;1796;52.388;13.096;2023-04-25T03:43:47;5.63;;;3.67;;
3563;SDS011;1796;52.388;13.096;2023-04-25T03:46:14;10.73;;;4.20;;
3563;SDS011;1796;52.388;13.096;2023-04-25T03:48:40;12.87;;;4.90;;
3563;SDS011;1796;52.388;13.096;2023-04-25T03:51:07;4.10;;;3.80;;
3563;SDS011;1796;52.388;13.096;2023-04-25T03:53:34;10.87;;;3.90;;
3563;SDS011;1796;52.388;13.096;2023-04-25T03:56:02;8.87;;;3.90;;
3563;SDS011;1796;52.388;13.096;2023-04-25T03:58:30;12.23;;;4.60;;
3563;SDS011;1796;52.388;13.096;2023-04-25T04:00:57;6.20;;;3.83;;
3563;SDS011;1796;52.388;13.096;2023-04-25T04:03:23;8.40;;;4.20;;
3563;SDS011;1796;52.388;13.096;2023-04-25T04:05:50;6.47;;;3.90;;
3563;SDS011;1796;52.388;13.096;2023-04-25T04:08:18;8.20;;;4.23;;
3563;SDS011;1796;52.388;13.096;2023-04-25T04:10:45;8.77;;;4.10;;
3563;SDS011;1796;52.388;13.096;2023-04-25T04:13:13;12.03;;;4.17;;
3563;SDS011;1796;52.388;13.096;2023-04-25T04:15:40;8.07;;;4.00;;
3563;SDS011;1796;52.388;13.096;2023-04-25T04:18:06;12.30;;;4.23;;
3563;SDS011;1796;52.388;13.096;2023-04-25T04:20:33;8.77;;;4.23;;
3563;SDS011;1796;52.388;13.096;2023-04-25T04:23:00;8.93;;;3.90;;
3563;SDS011;1796;52.388;13.096;2023-04-25T04:25:27;9.07;;;4.30;;
3563;SDS011;1796;52.388;13.096;2023-04-25T04:27:55;7.40;;;3.80;;
3563;SDS011;1796;52.388;13.096;2023-04-25T04:30:23;12.03;;;4.53;;
3563;SDS011;1796;52.388;13.096;2023-04-25T04:32:54;6.10;;;4.77;;
3563;SDS011;1796;52.388;13.096;2023-04-25T04:35:21;5.93;;;4.17;;
3563;SDS011;1796;52.388;13.096;2023-04-25T04:37:48;8.73;;;4.37;;
3563;SDS011;1796;52.388;13.096;2023-04-25T04:40:15;9.00;;;4.10;;
3563;SDS011;1796;52.388;13.096;2023-04-25T04:42:43;10.03;;;3.93;;
3563;SDS011;1796;52.388;13.096;2023-04-25T04:45:10;17.47;;;5.63;;
3563;SDS011;1796;52.388;13.096;2023-04-25T04:47:39;10.53;;;4.83;;
3563;SDS011;1796;52.388;13.096;2023-04-25T04:50:06;12.23;;;5.47;;
3563;SDS011;1796;52.388;13.096;2023-04-25T04:52:34;16.20;;;5.27;;
3563;SDS011;1796;52.388;13.096;2023-04-25T04:55:02;5.43;;;4.43;;
3563;SDS011;1796;52.388;13.096;2023-04-25T04:57:29;6.10;;;4.53;;
3563;SDS011;1796;52.388;13.096;2023-04-25T04:59:57;5.43;;;4.50;;
3563;SDS011;1796;52.388;13.096;2023-04-25T05:02:28;7.00;;;3.80;;
3563;SDS011;1796;52.388;13.096;2023-04-25T05:04:56;9.63;;;4.53;;
3563;SDS011;1796;52.388;13.096;2023-04-25T05:07:23;12.43;;;5.27;;
3563;SDS011;1796;52.388;13.096;2023-04-25T05:09:50;11.83;;;4.20;;
3563;SDS011;1796;52.388;13.096;2023-04-25T05:12:17;11.80;;;6.13;;
3563;SDS011;1796;52.388;13.096;2023-04-25T05:14:43;11.70;;;4.70;;
3563;SDS011;1796;52.388;13.096;2023-04-25T05:17:10;7.03;;;4.00;;
3563;SDS011;1796;52.388;13.096;2023-04-25T05:19:37;8.60;;;4.60;;
3563;SDS011;1796;52.388;13.096;2023-04-25T05:22:06;5.40;;;3.90;;
3563;SDS011;1796;52.388;13.096;2023-04-25T05:24:33;8.00;;;4.10;;
3563;SDS011;1796;52.388;13.096;2023-04-25T05:27:00;12.20;;;5.10;;
3563;SDS011;1796;52.388;13.096;2023-04-25T05:29:27;8.33;;;4.53;;
3563;SDS011;1796;52.388;13.096;2023-04-25T05:31:54;20.10;;;5.80;;
3563;SDS011;1796;52.388;13.096;2023-04-25T05:34:21;14.03;;;5.23;;
3563;SDS011;1796;52.388;13.096;2023-04-25T05:36:48;6.13;;;4.10;;
3563;SDS011;1796;52.388;13.096;2023-04-25T05:39:17;6.93;;;4.60;;
3563;SDS011;1796;52.388;13.096;2023-04-25T05:41:44;7.90;;;4.53;;
3563;SDS011;1796;52.388;13.096;2023-04-25T05:44:10;5.90;;;4.40;;
3563;SDS011;1796;52.388;13.096;2023-04-25T05:46:37;9.20;;;4.50;;
3563;SDS011;1796;52.388;13.096;2023-04-25T05:49:05;12.83;;;5.07;;
3563;SDS011;1796;52.388;13.096;2023-04-25T05:51:32;15.83;;;4.53;;
3563;SDS011;1796;52.388;13.096;2023-04-25T05:53:59;12.97;;;4.33;;
3563;SDS011;1796;52.388;13.096;2023-04-25T05:56:27;10.00;;;5.80;;
3563;SDS011;1796;52.388;13.096;2023-04-25T05:58:54;9.30;;;4.77;;
3563;SDS011;1796;52.388;13.096;2023-04-25T06:01:21;6.27;;;4.40;;
3563;SDS011;1796;52.388;13.096;2023-04-25T06:03:49;10.57;;;4.33;;
3563;SDS011;1796;52.388;13.096;2023-04-25T06:06:17;5.73;;;4.17;;
3563;SDS011;1796;52.388;13.096;2023-04-25T06:08:44;10.73;;;4.57;;
3563;SDS011;1796;52.388;13.096;2023-04-25T06:11:11;10.20;;;4.73;;
3563;SDS011;1796;52.388;13.096;2023-04-25T06:13:39;17.40;;;5.30;;
3563;SDS011;1796;52.388;13.096;2023-04-25T06:16:06;12.60;;;4.60;;
3563;SDS011;1796;52.388;13.096;2023-04-25T06:18:33;8.53;;;4.50;;
3563;SDS011;1796;52.388;13.096;2023-04-25T06:21:00;13.37;;;4.70;;
3563;SDS011;1796;52.388;13.096;2023-04-25T06:23:27;6.70;;;4.13;;
3563;SDS011;1796;52.388;13.096;2023-04-25T06:25:54;8.77;;;4.60;;
3563;SDS011;1796;52.388;13.096;2023-04-25T06:28:21;12.63;;;4.70;;
3563;SDS011;1796;52.388;13.096;2023-04-25T06:30:50;12.23;;;5.37;;
3563;SDS011;1796;52.388;13.096;2023-04-25T06:33:17;7.97;;;4.37;;
3563;SDS011;1796;52.388;13.096;2023-04-25T06:35:45;10.60;;;4.80;;
3563;SDS011;1796;52.388;13.096;2023-04-25T06:38:12;13.90;;;4.40;;
3563;SDS011;1796;52.388;13.096;2023-04-25T06:40:38;7.07;;;4.57;;
3563;SDS011;1796;52.388;13.096;2023-04-25T06:43:05;9.23;;;4.20;;
3563;SDS011;1796;52.388;13.096;2023-04-25T06:45:32;5.10;;;3.83;;
3563;SDS011;1796;52.388;13.096;2023-04-25T06:48:00;13.33;;;4.47;;
3563;SDS011;1796;52.388;13.096;2023-04-25T06:50:27;13.80;;;4.93;;
3563;SDS011;1796;52.388;13.096;2023-04-25T06:52:54;6.27;;;4.30;;
3563;SDS011;1796;52.388;13.096;2023-04-25T06:55:21;12.13;;;4.20;;
3563;SDS011;1796;52.388;13.096;2023-04-25T06:57:48;10.60;;;4.10;;
3563;SDS011;1796;52.388;13.096;2023-04-25T07:00:15;12.03;;;4.30;;
3563;SDS011;1796;52.388;13.096;2023-04-25T07:02:43;5.43;;;3.37;;
3563;SDS011;1796;52.388;13.096;2023-04-25T07:05:11;13.50;;;4.03;;
3563;SDS011;1796;52.388;13.096;2023-04-25T07:07:38;8.23;;;4.03;;
3563;SDS011;1796;52.388;13.096;2023-04-25T07:10:05;6.30;;;4.07;;
3563;SDS011;1796;52.388;13.096;2023-04-25T07:12:32;15.77;;;4.10;;
3563;SDS011;1796;52.388;13.096;2023-04-25T07:14:59;13.77;;;4.13;;
3563;SDS011;1796;52.388;13.096;2023-04-25T07:17:31;14.33;;;3.60;;
3563;SDS011;1796;52.388;13.096;2023-04-25T07:19:58;20.93;;;3.50;;
3563;SDS011;1796;52.388;13.096;2023-04-25T07:22:27;14.20;;;3.77;;
3563;SDS011;1796;52.388;13.096;2023-04-25T07:24:53;11.10;;;3.43;;
3563;SDS011;1796;52.388;13.096;2023-04-25T07:27:21;15.30;;;3.80;;
3563;SDS011;1796;52.388;13.096;2023-04-25T07:29:48;12.27;;;3.30;;
3563;SDS011;1796;52.388;13.096;2023-04-25T07:32:15;14.83;;;3.37;;
3563;SDS011;1796;52.388;13.096;2023-04-25T07:34:41;29.80;;;4.37;;
3563;SDS011;1796;52.388;13.096;2023-04-25T07:37:08;13.93;;;4.13;;
3563;SDS011;1796;52.388;13.096;2023-04-25T07:39:37;13.23;;;3.97;;
3563;SDS011;1796;52.388;13.096;2023-04-25T07:42:04;20.27;;;3.53;;
3563;SDS011;1796;52.388;13.096;2023-04-25T07:44:33;12.70;;;3.80;;
3563;SDS011;1796;52.388;13.096;2023-04-25T07:47:03;13.07;;;5.40;;
3563;SDS011;1796;52.388;13.096;2023-04-25T07:49:31;20.50;;;4.40;;
3563;SDS011;1796;52.388;13.096;2023-04-25T07:51:58;14.30;;;5.00;;
3563;SDS011;1796;52.388;13.096;2023-04-25T07:54:25;14.87;;;3.90;;
3563;SDS011;1796;52.388;13.096;2023-04-25T07:56:54;21.83;;;4.37;;
3563;SDS011;1796;52.388;13.096;2023-04-25T07:59:20;10.37;;;3.03;;
3563;SDS011;1796;52.388;13.096;2023-04-25T08:01:48;10.77;;;3.87;;
3563;SDS011;1796;52.388;13.096;2023-04-25T08:04:15;9.37;;;3.47;;
3563;SDS011;1796;52.388;13.096;2023-04-25T08:06:42;14.00;;;3.60;;
3563;SDS011;1796;52.388;13.096;2023-04-25T08:09:09;10.57;;;3.30;;
3563;SDS011;1796;52.388;13.096;2023-04-25T08:11:36;13.90;;;3.40;;
3563;SDS011;1796;52.388;13.096;2023-04-25T08:14:04;10.03;;;3.83;;
3563;SDS011;1796;52.388;13.096;2023-04-25T08:16:31;20.67;;;4.20;;
3563;SDS011;1796;52.388;13.096;2023-04-25T08:18:58;19.67;;;3.83;;
3563;SDS011;1796;52.388;13.096;2023-04-25T08:21:25;12.33;;;4.13;;
3563;SDS011;1796;52.388;13.096;2023-04-25T08:23:53;15.20;;;3.00;;
3563;SDS011;1796;52.388;13.096;2023-04-25T08:26:19;25.53;;;4.20;;
3563;SDS011;1796;52.388;13.096;2023-04-25T08:28:46;20.27;;;4.10;;
3563;SDS011;1796;52.388;13.096;2023-04-25T08:31:15;16.07;;;3.70;;
3563;SDS011;1796;52.388;13.096;2023-04-25T08:33:42;10.60;;;3.27;;
3563;SDS011;1796;52.388;13.096;2023-04-25T08:36:09;29.93;;;4.30;;
3563;SDS011;1796;52.388;13.096;2023-04-25T08:38:36;15.17;;;3.30;;
3563;SDS011;1796;52.388;13.096;2023-04-25T08:41:03;13.40;;;4.00;;
3563;SDS011;1796;52.388;13.096;2023-04-25T08:43:32;16.10;;;2.90;;
3563;SDS011;1796;52.388;13.096;2023-04-25T08:46:01;14.50;;;3.43;;
3563;SDS011;1796;52.388;13.096;2023-04-25T08:48:31;13.57;;;3.40;;
3563;SDS011;1796;52.388;13.096;2023-04-25T08:50:59;19.20;;;3.40;;
3563;SDS011;1796;52.388;13.096;2023-04-25T08:53:30;18.80;;;3.00;;
3563;SDS011;1796;52.388;13.096;2023-04-25T08:55:58;14.60;;;3.73;;
3563;SDS011;1796;52.388;13.096;2023-04-25T08:58:27;11.00;;;3.40;;
3563;SDS011;1796;52.388;13.096;2023-04-25T09:00:54;18.73;;;3.30;;
3563;SDS011;1796;52.388;13.096;2023-04-25T09:03:21;10.73;;;3.10;;
3563;SDS011;1796;52.388;13.096;2023-04-25T09:05:50;13.73;;;3.00;;
3563;SDS011;1796;52.388;13.096;2023-04-25T09:08:17;19.07;;;3.80;;
3563;SDS011;1796;52.388;13.096;2023-04-25T09:10:45;11.43;;;3.00;;
3563;SDS011;1796;52.388;13.096;2023-04-25T09:13:12;10.63;;;2.70;;
3563;SDS011;1796;52.388;13.096;2023-04-25T09:15:47;20.63;;;3.87;;
3563;SDS011;1796;52.388;13.096;2023-04-25T09:18:21;16.53;;;3.50;;
3563;SDS011;1796;52.388;13.096;2023-04-25T09:20:51;5.73;;;2.43;;
3563;SDS011;1796;52.388;13.096;2023-04-25T09:23:19;11.40;;;3.20;;
3563;SDS011;1796;52.388;13.096;2023-04-25T09:25:47;19.40;;;3.97;;
3563;SDS011;1796;52.388;13.096;2023-04-25T09:28:14;8.00;;;2.70;;
3563;SDS011;1796;52.388;13.096;2023-04-25T09:30:41;14.30;;;2.67;;
3563;SDS011;1796;52.388;13.096;2023-04-25T09:33:09;8.77;;;3.30;;
3563;SDS011;1796;52.388;13.096;2023-04-25T09:35:37;12.47;;;3.40;;
3563;SDS011;1796;52.388;13.096;2023-04-25T09:38:10;23.93;;;3.20;;
3563;SDS011;1796;52.388;13.096;2023-04-25T09:40:41;21.03;;;2.80;;
3563;SDS011;1796;52.388;13.096;2023-04-25T09:43:18;7.90;;;2.43;;
3563;SDS011;1796;52.388;13.096;2023-04-25T09:45:45;19.83;;;3.37;;
3563;SDS011;1796;52.388;13.096;2023-04-25T09:48:16;9.97;;;3.50;;
3563;SDS011;1796;52.388;13.096;2023-04-25T09:50:45;14.27;;;2.87;;
3563;SDS011;1796;52.388;13.096;2023-04-25T09:53:13;11.73;;;2.50;;
3563;SDS011;1796;52.388;13.096;2023-04-25T09:55:40;12.70;;;2.97;;
3563;SDS011;1796;52.388;13.096;2023-04-25T09:58:09;8.80;;;2.37;;
3563;SDS011;1796;52.388;13.096;2023-04-25T10:00:38;12.90;;;3.37;;
3563;SDS011;1796;52.388;13.096;2023-04-25T10:03:07;6.77;;;2.80;;
3563;SDS011;1796;52.388;13.096;2023-04-25T10:05:34;9.83;;;2.30;;
3563;SDS011;1796;52.388;13.096;2023-04-25T10:08:03;9.57;;;3.00;;
3563;SDS011;1796;52.388;13.096;2023-04-25T10:10:32;12.03;;;3.10;;
3563;SDS011;1796;52.388;13.096;2023-04-25T10:13:03;6.50;;;2.47;;
3563;SDS011;1796;52.388;13.096;2023-04-25T10:15:32;24.23;;;3.57;;
3563;SDS011;1796;52.388;13.096;2023-04-25T10:18:01;7.40;;;2.13;;
3563;SDS011;1796;52.388;13.096;2023-04-25T10:20:28;5.60;;;2.20;;
3563;SDS011;1796;52.388;13.096;2023-04-25T10:22:57;11.50;;;3.23;;
3563;SDS011;1796;52.388;13.096;2023-04-25T10:25:30;7.93;;;3.17;;
3563;SDS011;1796;52.388;13.096;2023-04-25T10:27:58;14.73;;;3.20;;
3563;SDS011;1796;52.388;13.096;2023-04-25T10:30:27;7.70;;;2.53;;
3563;SDS011;1796;52.388;13.096;2023-04-25T10:32:54;10.87;;;2.93;;
3563;SDS011;1796;52.388;13.096;2023-04-25T10:35:24;8.90;;;2.40;;
3563;SDS011;1796;52.388;13.096;2023-04-25T10:37:58;7.30;;;2.43;;
3563;SDS011;1796;52.388;13.096;2023-04-25T10:40:26;12.93;;;3.37;;
3563;SDS011;1796;52.388;13.096;2023-04-25T10:42:53;7.73;;;2.40;;
3563;SDS011;1796;52.388;13.096;2023-04-25T10:45:22;10.70;;;2.33;;
3563;SDS011;1796;52.388;13.096;2023-04-25T10:47:49;10.40;;;2.20;;
3563;SDS011;1796;52.388;13.096;2023-04-25T10:50:16;11.67;;;2.27;;
3563;SDS011;1796;52.388;13.096;2023-04-25T10:52:43;8.70;;;2.33;;
3563;SDS011;1796;52.388;13.096;2023-04-25T10:55:10;11.00;;;2.80;;
3563;SDS011;1796;52.388;13.096;2023-04-25T10:57:38;6.07;;;2.60;;
3563;SDS011;1796;52.388;13.096;2023-04-25T11:00:10;6.80;;;2.50;;
3563;SDS011;1796;52.388;13.096;2023-04-25T11:02:45;14.20;;;2.63;;
3563;SDS011;1796;52.388;13.096;2023-04-25T11:05:18;9.50;;;2.73;;
3563;SDS011;1796;52.388;13.096;2023-04-25T11:07:53;8.00;;;3.47;;
3563;SDS011;1796;52.388;13.096;2023-04-25T11:10:25;8.93;;;2.40;;
3563;SDS011;1796;52.388;13.096;2023-04-25T11:12:52;11.30;;;2.80;;
3563;SDS011;1796;52.388;13.096;2023-04-25T11:15:19;8.50;;;2.70;;
3563;SDS011;1796;52.388;13.096;2023-04-25T11:17:47;11.93;;;2.47;;
3563;SDS011;1796;52.388;13.096;2023-04-25T11:20:15;8.40;;;2.17;;
3563;SDS011;1796;52.388;13.096;2023-04-25T11:22:43;6.13;;;2.47;;
3563;SDS011;1796;52.388;13.096;2023-04-25T11:25:11;5.20;;;2.50;;
3563;SDS011;1796;52.388;13.096;2023-04-25T11:27:49;7.03;;;2.37;;
3563;SDS011;1796;52.388;13.096;2023-04-25T11:30:16;13.30;;;2.40;;
3563;SDS011;1796;52.388;13.096;2023-04-25T11:32:43;10.80;;;2.50;;
3563;SDS011;1796;52.388;13.096;2023-04-25T11:35:12;11.07;;;1.90;;
3563;SDS011;1796;52.388;13.096;2023-04-25T11:37:40;7.93;;;1.90;;
3563;SDS011;1796;52.388;13.096;2023-04-25T11:40:08;10.63;;;2.20;;
3563;SDS011;1796;52.388;13.096;2023-04-25T11:42:36;9.90;;;2.10;;
3563;SDS011;1796;52.388;13.096;2023-04-25T11:45:05;15.83;;;2.80;;
3563;SDS011;1796;52.388;13.096;2023-04-25T11:47:33;20.13;;;2.17;;
3563;SDS011;1796;52.388;13.096;2023-04-25T11:50:00;7.37;;;2.90;;
3563;SDS011;1796;52.388;13.096;2023-04-25T11:52:39;7.70;;;2.30;;
3563;SDS011;1796;52.388;13.096;2023-04-25T11:55:09;3.13;;;2.20;;
3563;SDS011;1796;52.388;13.096;2023-04-25T11:57:39;7.40;;;2.33;;
3563;SDS011;1796;52.388;13.096;2023-04-25T12:00:08;6.50;;;2.20;;
3563;SDS011;1796;52.388;13.096;2023-04-25T12:02:40;4.40;;;2.03;;
3563;SDS011;1796;52.388;13.096;2023-04-25T12:05:08;16.70;;;2.33;;
3563;SDS011;1796;52.388;13.096;2023-04-25T12:07:35;4.00;;;2.33;;
3563;SDS011;1796;52.388;13.096;2023-04-25T12:10:07;4.97;;;2.20;;
3563;SDS011;1796;52.388;13.096;2023-04-25T12:12:36;9.77;;;2.13;;
3563;SDS011;1796;52.388;13.096;2023-04-25T12:15:11;2.33;;;2.10;;
3563;SDS011;1796;52.388;13.096;2023-04-25T12:17:40;9.33;;;2.70;;
3563;SDS011;1796;52.388;13.096;2023-04-25T12:20:09;6.83;;;1.80;;
3563;SDS011;1796;52.388;13.096;2023-04-25T12:22:40;10.63;;;2.30;;
3563;SDS011;1796;52.388;13.096;2023-04-25T12:28:10;5.63;;;2.30;;
3563;SDS011;1796;52.388;13.096;2023-04-25T12:30:51;5.30;;;2.17;;
3563;SDS011;1796;52.388;13.096;2023-04-25T12:33:20;6.47;;;1.63;;
3563;SDS011;1796;52.388;13.096;2023-04-25T12:35:47;4.80;;;1.57;;
3563;SDS011;1796;52.388;13.096;2023-04-25T12:38:20;1.97;;;1.63;;
3563;SDS011;1796;52.388;13.096;2023-04-25T12:40:49;9.97;;;2.17;;
3563;SDS011;1796;52.388;13.096;2023-04-25T12:43:16;8.37;;;1.90;;
3563;SDS011;1796;52.388;13.096;2023-04-25T12:45:43;9.13;;;2.20;;
3563;SDS011;1796;52.388;13.096;2023-04-25T12:48:10;3.90;;;2.17;;
3563;SDS011;1796;52.388;13.096;2023-04-25T12:50:36;4.03;;;2.10;;
3563;SDS011;1796;52.388;13.096;2023-04-25T12:53:03;6.83;;;2.40;;
3563;SDS011;1796;52.388;13.096;2023-04-25T12:55:30;14.67;;;2.60;;
3563;SDS011;1796;52.388;13.096;2023-04-25T12:57:58;8.90;;;1.97;;
3563;SDS011;1796;52.388;13.096;2023-04-25T13:00:25;6.70;;;2.37;;
3563;SDS011;1796;52.388;13.096;2023-04-25T13:02:52;6.83;;;2.50;;
3563;SDS011;1796;52.388;13.096;2023-04-25T13:05:19;9.27;;;1.87;;
3563;SDS011;1796;52.388;13.096;2023-04-25T13:07:46;10.23;;;2.40;;
3563;SDS011;1796;52.388;13.096;2023-04-25T13:10:13;4.03;;;1.93;;
3563;SDS011;1796;52.388;13.096;2023-04-25T13:12:40;5.90;;;2.10;;
3563;SDS011;1796;52.388;13.096;2023-04-25T13:15:09;5.03;;;1.83;;
3563;SDS011;1796;52.388;13.096;2023-04-25T13:17:37;3.23;;;2.13;;
3563;SDS011;1796;52.388;13.096;2023-04-25T13:20:04;3.00;;;1.60;;
3563;SDS011;1796;52.388;13.096;2023-04-25T13:22:33;13.90;;;2.33;;
3563;SDS011;1796;52.388;13.096;2023-04-25T13:25:02;5.87;;;1.80;;
3563;SDS011;1796;52.388;13.096;2023-04-25T13:27:29;11.47;;;3.63;;
3563;SDS011;1796;52.388;13.096;2023-04-25T13:29:57;11.27;;;2.57;;
3563;SDS011;1796;52.388;13.096;2023-04-25T13:32:26;5.73;;;2.70;;
3563;SDS011;1796;52.388;13.096;2023-04-25T13:34:53;7.37;;;2.23;;
3563;SDS011;1796;52.388;13.096;2023-04-25T13:37:21;5.40;;;1.93;;
3563;SDS011;1796;52.388;13.096;2023-04-25T13:39:49;12.43;;;1.90;;
3563;SDS011;1796;52.388;13.096;2023-04-25T13:42:16;5.07;;;1.60;;
3563;SDS011;1796;52.388;13.096;2023-04-25T13:44:43;8.23;;;1.90;;
3563;SDS011;1796;52.388;13.096;2023-04-25T13:47:10;10.90;;;2.60;;
3563;SDS011;1796;52.388;13.096;2023-04-25T13:49:46;7.90;;;2.37;;
3563;SDS011;1796;52.388;13.096;2023-04-25T13:52:13;4.87;;;2.30;;
3563;SDS011;1796;52.388;13.096;2023-04-25T13:54:40;11.20;;;2.37;;
3563;SDS011;1796;52.388;13.096;2023-04-25T13:57:07;13.50;;;2.97;;
3563;SDS011;1796;52.388;13.096;2023-04-25T13:59:33;10.67;;;2.30;;
3563;SDS011;1796;52.388;13.096;2023-04-25T14:02:00;8.00;;;2.10;;
3563;SDS011;1796;52.388;13.096;2023-04-25T14:04:27;10.80;;;2.37;;
3563;SDS011;1796;52.388;13.096;2023-04-25T14:06:56;7.63;;;2.10;;
3563;SDS011;1796;52.388;13.096;2023-04-25T14:09:23;6.30;;;2.70;;
3563;SDS011;1796;52.388;13.096;2023-04-25T14:11:50;5.67;;;2.33;;
3563;SDS011;1796;52.388;13.096;2023-04-25T14:14:18;18.53;;;2.63;;
3563;SDS011;1796;52.388;13.096;2023-04-25T14:16:46;12.50;;;2.30;;
3563;SDS011;1796;52.388;13.096;2023-04-25T14:19:13;11.13;;;2.07;;
3563;SDS011;1796;52.388;13.096;2023-04-25T14:21:40;10.10;;;2.57;;
3563;SDS011;1796;52.388;13.096;2023-04-25T14:24:10;5.23;;;2.13;;
3563;SDS011;1796;52.388;13.096;2023-04-25T14:26:45;7.63;;;2.00;;
3563;SDS011;1796;52.388;13.096;2023-04-25T14:29:12;6.10;;;2.50;;
3563;SDS011;1796;52.388;13.096;2023-04-25T14:31:39;5.50;;;3.20;;
3563;SDS011;1796;52.388;13.096;2023-04-25T14:34:06;6.10;;;2.40;;
3563;SDS011;1796;52.388;13.096;2023-04-25T14:36:35;4.20;;;2.30;;
3563;SDS011;1796;52.388;13.096;2023-04-25T14:39:02;5.60;;;2.37;;
3563;SDS011;1796;52.388;13.096;2023-04-25T14:41:30;4.40;;;2.13;;
3563;SDS011;1796;52.388;13.096;2023-04-25T14:43:58;10.80;;;2.30;;
3563;SDS011;1796;52.388;13.096;2023-04-25T14:46:25;13.53;;;3.00;;
3563;SDS011;1796;52.388;13.096;2023-04-25T14:48:52;11.23;;;2.30;;
3563;SDS011;1796;52.388;13.096;2023-04-25T14:51:20;8.20;;;2.40;;
3563;SDS011;1796;52.388;13.096;2023-04-25T14:53:47;11.13;;;2.43;;
3563;SDS011;1796;52.388;13.096;2023-04-25T14:56:15;3.87;;;2.23;;
3563;SDS011;1796;52.388;13.096;2023-04-25T14:58:42;6.87;;;2.03;;
3563;SDS011;1796;52.388;13.096;2023-04-25T15:01:10;6.20;;;2.00;;